sensor_id;sensor_type;location;lat;lon;timestamp;pressure;altitude;pressure_sealevel;temperature;humidity
141;BME280;65;48.778;9.160;2023-09-08T00:02:13;98703.22;;;17.00;100.00
141;BME280;65;48.778;9.160;2023-09-08T00:04:59;98705.28;;;16.96;100.00
141;BME280;65;48.778;9.160;2023-09-08T00:07:45;98700.03;;;17.06;100.00
141;BME280;65;48.778;9.160;2023-09-08T00:10:30;98704.53;;;17.05;100.00
141;BME280;65;48.778;9.160;2023-09-08T00:13:16;98701.75;;;17.07;100.00
141;BME280;65;48.778;9.160;2023-09-08T00:16:02;98700.28;;;17.03;100.00
141;BME280;65;48.778;9.160;2023-09-08T00:18:47;98697.28;;;16.96;100.00
141;BME280;65;48.778;9.160;2023-09-08T00:21:33;98697.41;;;16.95;100.00
141;BME280;65;48.778;9.160;2023-09-08T00:24:19;98709.31;;;16.91;100.00
141;BME280;65;48.778;9.160;2023-09-08T00:27:05;98701.28;;;16.91;100.00
141;BME280;65;48.778;9.160;2023-09-08T00:29:51;98708.59;;;16.89;100.00
141;BME280;65;48.778;9.160;2023-09-08T00:32:37;98704.72;;;16.82;100.00
141;BME280;65;48.778;9.160;2023-09-08T00:35:22;98712.00;;;16.80;100.00
141;BME280;65;48.778;9.160;2023-09-08T00:38:08;98696.94;;;16.79;100.00
141;BME280;65;48.778;9.160;2023-09-08T00:40:54;98702.50;;;16.75;100.00
141;BME280;65;48.778;9.160;2023-09-08T00:43:39;98710.63;;;16.74;100.00
141;BME280;65;48.778;9.160;2023-09-08T00:46:25;98706.38;;;16.71;100.00
141;BME280;65;48.778;9.160;2023-09-08T00:49:12;98705.78;;;16.68;100.00
141;BME280;65;48.778;9.160;2023-09-08T00:51:58;98707.81;;;16.64;100.00
141;BME280;65;48.778;9.160;2023-09-08T00:54:44;98708.06;;;16.61;100.00
141;BME280;65;48.778;9.160;2023-09-08T00:57:31;98707.69;;;16.55;100.00
141;BME280;65;48.778;9.160;2023-09-08T01:00:18;98698.25;;;16.51;100.00
141;BME280;65;48.778;9.160;2023-09-08T01:03:04;98708.69;;;16.54;100.00
141;BME280;65;48.778;9.160;2023-09-08T01:05:50;98706.13;;;16.52;100.00
141;BME280;65;48.778;9.160;2023-09-08T01:08:36;98704.31;;;16.53;100.00
141;BME280;65;48.778;9.160;2023-09-08T01:11:22;98707.94;;;16.52;100.00
141;BME280;65;48.778;9.160;2023-09-08T01:14:11;98702.13;;;16.47;100.00
141;BME280;65;48.778;9.160;2023-09-08T01:16:58;98702.13;;;16.47;100.00
141;BME280;65;48.778;9.160;2023-09-08T01:19:44;98702.38;;;16.43;100.00
141;BME280;65;48.778;9.160;2023-09-08T01:23:00;98698.63;;;16.35;100.00
141;BME280;65;48.778;9.160;2023-09-08T01:25:52;98706.97;;;16.30;100.00
141;BME280;65;48.778;9.160;2023-09-08T01:28:40;98694.50;;;16.31;100.00
141;BME280;65;48.778;9.160;2023-09-08T01:31:26;98708.78;;;16.30;100.00
141;BME280;65;48.778;9.160;2023-09-08T01:34:13;98706.25;;;16.28;100.00
141;BME280;65;48.778;9.160;2023-09-08T01:36:59;98703.09;;;16.34;100.00
141;BME280;65;48.778;9.160;2023-09-08T01:39:48;98706.38;;;16.38;100.00
141;BME280;65;48.778;9.160;2023-09-08T01:42:33;98698.00;;;16.31;100.00
141;BME280;65;48.778;9.160;2023-09-08T01:45:19;98705.53;;;16.26;100.00
141;BME280;65;48.778;9.160;2023-09-08T01:48:05;98695.34;;;16.20;100.00
141;BME280;65;48.778;9.160;2023-09-08T01:50:51;98700.03;;;16.17;100.00
141;BME280;65;48.778;9.160;2023-09-08T01:53:36;98696.88;;;16.11;100.00
141;BME280;65;48.778;9.160;2023-09-08T01:56:22;98697.94;;;16.09;100.00
141;BME280;65;48.778;9.160;2023-09-08T01:59:08;98695.66;;;16.04;100.00
141;BME280;65;48.778;9.160;2023-09-08T02:01:54;98699.28;;;16.03;100.00
141;BME280;65;48.778;9.160;2023-09-08T02:04:40;98696.13;;;15.98;100.00
141;BME280;65;48.778;9.160;2023-09-08T02:07:26;98699.75;;;15.97;100.00
141;BME280;65;48.778;9.160;2023-09-08T02:10:12;98699.63;;;15.99;100.00
141;BME280;65;48.778;9.160;2023-09-08T02:12:57;98690.78;;;15.98;100.00
141;BME280;65;48.778;9.160;2023-09-08T02:15:43;98698.06;;;15.96;100.00
141;BME280;65;48.778;9.160;2023-09-08T02:18:29;98698.28;;;15.93;100.00
141;BME280;65;48.778;9.160;2023-09-08T02:21:14;98697.69;;;15.90;100.00
141;BME280;65;48.778;9.160;2023-09-08T02:24:00;98689.81;;;15.88;100.00
141;BME280;65;48.778;9.160;2023-09-08T02:26:46;98691.75;;;15.97;100.00
141;BME280;65;48.778;9.160;2023-09-08T02:29:32;98690.66;;;16.00;100.00
141;BME280;65;48.778;9.160;2023-09-08T02:32:17;98692.00;;;15.94;100.00
141;BME280;65;48.778;9.160;2023-09-08T02:35:03;98684.84;;;15.95;100.00
141;BME280;65;48.778;9.160;2023-09-08T02:37:49;98691.41;;;16.13;100.00
141;BME280;65;48.778;9.160;2023-09-08T02:40:35;98686.13;;;16.24;100.00
141;BME280;65;48.778;9.160;2023-09-08T02:43:20;98679.94;;;16.24;100.00
141;BME280;65;48.778;9.160;2023-09-08T02:46:06;98684.13;;;16.15;100.00
141;BME280;65;48.778;9.160;2023-09-08T02:48:54;98694.31;;;16.10;100.00
141;BME280;65;48.778;9.160;2023-09-08T02:51:40;98690.56;;;16.01;100.00
141;BME280;65;48.778;9.160;2023-09-08T02:54:26;98685.69;;;15.95;100.00
141;BME280;65;48.778;9.160;2023-09-08T02:57:11;98683.88;;;15.96;100.00
141;BME280;65;48.778;9.160;2023-09-08T02:59:57;98680.59;;;15.92;100.00
141;BME280;65;48.778;9.160;2023-09-08T03:02:43;98684.47;;;15.88;100.00
141;BME280;65;48.778;9.160;2023-09-08T03:05:29;98689.53;;;15.80;100.00
141;BME280;65;48.778;9.160;2023-09-08T03:08:15;98688.19;;;15.74;100.00
141;BME280;65;48.778;9.160;2023-09-08T03:11:00;98691.22;;;15.70;100.00
141;BME280;65;48.778;9.160;2023-09-08T03:13:46;98688.91;;;15.65;100.00
141;BME280;65;48.778;9.160;2023-09-08T03:16:32;98688.28;;;15.62;100.00
141;BME280;65;48.778;9.160;2023-09-08T03:19:17;98684.97;;;15.58;100.00
141;BME280;65;48.778;9.160;2023-09-08T03:22:03;98693.03;;;15.57;100.00
141;BME280;65;48.778;9.160;2023-09-08T03:24:49;98686.38;;;15.51;100.00
141;BME280;65;48.778;9.160;2023-09-08T03:27:34;98684.78;;;15.48;100.00
141;BME280;65;48.778;9.160;2023-09-08T03:30:20;98680.44;;;15.47;100.00
141;BME280;65;48.778;9.160;2023-09-08T03:33:06;98683.81;;;15.49;100.00
141;BME280;65;48.778;9.160;2023-09-08T03:35:51;98681.38;;;15.46;100.00
141;BME280;65;48.778;9.160;2023-09-08T03:38:37;98678.00;;;15.44;100.00
141;BME280;65;48.778;9.160;2023-09-08T03:41:23;98691.44;;;15.43;100.00
141;BME280;65;48.778;9.160;2023-09-08T03:44:09;98689.22;;;15.37;100.00
141;BME280;65;48.778;9.160;2023-09-08T03:46:55;98684.25;;;15.32;100.00
141;BME280;65;48.778;9.160;2023-09-08T03:49:40;98687.25;;;15.28;100.00
141;BME280;65;48.778;9.160;2023-09-08T03:52:26;98684.59;;;15.28;100.00
141;BME280;65;48.778;9.160;2023-09-08T03:55:12;98691.00;;;15.25;100.00
141;BME280;65;48.778;9.160;2023-09-08T03:57:57;98686.50;;;15.26;100.00
141;BME280;65;48.778;9.160;2023-09-08T04:00:43;98691.72;;;15.27;100.00
141;BME280;65;48.778;9.160;2023-09-08T04:03:32;98695.84;;;15.31;100.00
141;BME280;65;48.778;9.160;2023-09-08T04:06:18;98697.56;;;15.32;100.00
141;BME280;65;48.778;9.160;2023-09-08T04:09:03;98697.56;;;15.32;100.00
141;BME280;65;48.778;9.160;2023-09-08T04:11:49;98706.75;;;15.28;100.00
141;BME280;65;48.778;9.160;2023-09-08T04:14:35;98701.66;;;15.25;100.00
141;BME280;65;48.778;9.160;2023-09-08T04:17:21;98706.00;;;15.26;100.00
141;BME280;65;48.778;9.160;2023-09-08T04:20:07;98700.91;;;15.23;100.00
141;BME280;65;48.778;9.160;2023-09-08T04:22:54;98696.78;;;15.19;100.00
141;BME280;65;48.778;9.160;2023-09-08T04:25:39;98700.41;;;15.18;100.00
141;BME280;65;48.778;9.160;2023-09-08T04:28:25;98701.59;;;15.14;100.00
141;BME280;65;48.778;9.160;2023-09-08T04:31:11;98706.41;;;15.09;100.00
141;BME280;65;48.778;9.160;2023-09-08T04:33:57;98705.50;;;15.21;100.00
141;BME280;65;48.778;9.160;2023-09-08T04:36:42;98704.53;;;15.22;100.00
141;BME280;65;48.778;9.160;2023-09-08T04:39:28;98705.28;;;15.24;100.00
141;BME280;65;48.778;9.160;2023-09-08T04:42:14;98713.47;;;15.21;100.00
141;BME280;65;48.778;9.160;2023-09-08T04:44:59;98722.44;;;15.20;100.00
141;BME280;65;48.778;9.160;2023-09-08T04:47:45;98712.88;;;15.17;100.00
141;BME280;65;48.778;9.160;2023-09-08T04:50:32;98714.78;;;15.15;100.00
141;BME280;65;48.778;9.160;2023-09-08T04:53:18;98713.19;;;15.13;100.00
141;BME280;65;48.778;9.160;2023-09-08T04:56:04;98715.13;;;15.11;100.00
141;BME280;65;48.778;9.160;2023-09-08T04:58:49;98714.38;;;15.09;100.00
141;BME280;65;48.778;9.160;2023-09-08T05:01:35;98710.75;;;15.10;100.00
141;BME280;65;48.778;9.160;2023-09-08T05:04:22;98719.25;;;15.15;100.00
141;BME280;65;48.778;9.160;2023-09-08T05:07:08;98716.72;;;15.13;100.00
141;BME280;65;48.778;9.160;2023-09-08T05:09:54;98717.34;;;15.17;100.00
141;BME280;65;48.778;9.160;2023-09-08T05:12:40;98722.78;;;15.15;100.00
141;BME280;65;48.778;9.160;2023-09-08T05:15:25;98714.22;;;15.23;100.00
141;BME280;65;48.778;9.160;2023-09-08T05:18:11;98716.66;;;15.26;100.00
141;BME280;65;48.778;9.160;2023-09-08T05:20:57;98717.16;;;15.31;100.00
141;BME280;65;48.778;9.160;2023-09-08T05:23:42;98715.97;;;15.35;100.00
141;BME280;65;48.778;9.160;2023-09-08T05:26:28;98712.13;;;15.39;100.00
141;BME280;65;48.778;9.160;2023-09-08T05:29:14;98723.28;;;15.44;100.00
141;BME280;65;48.778;9.160;2023-09-08T05:32:00;98724.63;;;15.50;100.00
141;BME280;65;48.778;9.160;2023-09-08T05:34:45;98726.84;;;15.56;100.00
141;BME280;65;48.778;9.160;2023-09-08T05:37:31;98720.16;;;15.63;100.00
141;BME280;65;48.778;9.160;2023-09-08T05:40:17;98732.78;;;15.72;100.00
141;BME280;65;48.778;9.160;2023-09-08T05:43:04;98732.91;;;15.82;100.00
141;BME280;65;48.778;9.160;2023-09-08T05:45:50;98739.25;;;15.92;100.00
141;BME280;65;48.778;9.160;2023-09-08T05:48:36;98733.34;;;16.00;100.00
141;BME280;65;48.778;9.160;2023-09-08T05:51:21;98735.75;;;16.03;100.00
141;BME280;65;48.778;9.160;2023-09-08T05:54:08;98736.25;;;16.08;100.00
141;BME280;65;48.778;9.160;2023-09-08T05:56:53;98731.78;;;16.08;100.00
141;BME280;65;48.778;9.160;2023-09-08T05:59:39;98740.16;;;16.15;100.00
141;BME280;65;48.778;9.160;2023-09-08T06:02:25;98726.69;;;16.17;100.00
141;BME280;65;48.778;9.160;2023-09-08T06:05:10;98727.81;;;16.25;100.00
141;BME280;65;48.778;9.160;2023-09-08T06:07:56;98737.28;;;16.40;100.00
141;BME280;65;48.778;9.160;2023-09-08T06:10:42;98737.19;;;16.64;100.00
141;BME280;65;48.778;9.160;2023-09-08T06:13:28;98739.03;;;16.75;100.00
141;BME280;65;48.778;9.160;2023-09-08T06:16:13;98735.28;;;16.89;100.00
141;BME280;65;48.778;9.160;2023-09-08T06:18:59;98732.00;;;16.96;100.00
141;BME280;65;48.778;9.160;2023-09-08T06:21:45;98731.50;;;17.02;100.00
141;BME280;65;48.778;9.160;2023-09-08T06:24:31;98729.16;;;17.09;100.00
141;BME280;65;48.778;9.160;2023-09-08T06:27:17;98730.63;;;17.13;100.00
141;BME280;65;48.778;9.160;2023-09-08T06:30:03;98723.28;;;17.26;100.00
141;BME280;65;48.778;9.160;2023-09-08T06:32:49;98721.59;;;17.25;100.00
141;BME280;65;48.778;9.160;2023-09-08T06:35:34;98736.16;;;17.32;100.00
141;BME280;65;48.778;9.160;2023-09-08T06:38:20;98736.75;;;17.47;100.00
141;BME280;65;48.778;9.160;2023-09-08T06:41:12;98733.19;;;17.58;100.00
141;BME280;65;48.778;9.160;2023-09-08T06:43:58;98733.75;;;17.61;100.00
141;BME280;65;48.778;9.160;2023-09-08T06:46:44;98735.84;;;17.69;100.00
141;BME280;65;48.778;9.160;2023-09-08T06:49:29;98740.91;;;17.72;100.00
141;BME280;65;48.778;9.160;2023-09-08T06:52:16;98735.84;;;17.90;100.00
141;BME280;65;48.778;9.160;2023-09-08T06:55:02;98734.63;;;17.94;100.00
141;BME280;65;48.778;9.160;2023-09-08T06:57:48;98737.19;;;17.95;100.00
141;BME280;65;48.778;9.160;2023-09-08T07:00:34;98730.91;;;18.06;100.00
141;BME280;65;48.778;9.160;2023-09-08T07:03:22;98740.19;;;18.23;100.00
141;BME280;65;48.778;9.160;2023-09-08T07:06:08;98736.31;;;18.37;100.00
141;BME280;65;48.778;9.160;2023-09-08T07:08:54;98733.81;;;18.45;100.00
141;BME280;65;48.778;9.160;2023-09-08T07:11:39;98743.75;;;18.54;99.25
141;BME280;65;48.778;9.160;2023-09-08T07:14:25;98731.88;;;18.68;98.31
141;BME280;65;48.778;9.160;2023-09-08T07:17:11;98732.91;;;18.86;99.71
141;BME280;65;48.778;9.160;2023-09-08T07:19:56;98733.53;;;18.99;96.05
141;BME280;65;48.778;9.160;2023-09-08T07:22:42;98738.88;;;18.99;95.73
141;BME280;65;48.778;9.160;2023-09-08T07:25:28;98734.44;;;19.09;96.34
141;BME280;65;48.778;9.160;2023-09-08T07:28:15;98725.97;;;19.14;96.01
141;BME280;65;48.778;9.160;2023-09-08T07:31:02;98732.22;;;19.34;94.23
141;BME280;65;48.778;9.160;2023-09-08T07:33:48;98725.31;;;19.50;94.81
141;BME280;65;48.778;9.160;2023-09-08T07:36:36;98724.69;;;19.68;92.04
141;BME280;65;48.778;9.160;2023-09-08T07:39:22;98735.13;;;19.80;91.99
141;BME280;65;48.778;9.160;2023-09-08T07:42:07;98736.81;;;19.72;94.64
141;BME280;65;48.778;9.160;2023-09-08T07:44:53;98732.72;;;19.77;93.10
141;BME280;65;48.778;9.160;2023-09-08T07:47:39;98733.41;;;19.89;93.67
141;BME280;65;48.778;9.160;2023-09-08T07:50:27;98736.38;;;19.96;93.10
141;BME280;65;48.778;9.160;2023-09-08T07:53:13;98725.75;;;20.13;91.69
141;BME280;65;48.778;9.160;2023-09-08T07:55:58;98732.09;;;20.22;89.83
141;BME280;65;48.778;9.160;2023-09-08T07:58:44;98732.94;;;20.42;89.73
141;BME280;65;48.778;9.160;2023-09-08T08:01:30;98729.38;;;20.51;88.57
141;BME280;65;48.778;9.160;2023-09-08T08:04:15;98721.59;;;20.58;88.58
141;BME280;65;48.778;9.160;2023-09-08T08:07:01;98726.06;;;20.67;89.85
141;BME280;65;48.778;9.160;2023-09-08T08:09:48;98727.31;;;20.82;86.82
141;BME280;65;48.778;9.160;2023-09-08T08:12:33;98732.69;;;20.72;89.12
141;BME280;65;48.778;9.160;2023-09-08T08:15:20;98719.66;;;20.87;87.52
141;BME280;65;48.778;9.160;2023-09-08T08:18:07;98721.13;;;20.99;86.85
141;BME280;65;48.778;9.160;2023-09-08T08:20:55;98724.06;;;21.06;86.16
141;BME280;65;48.778;9.160;2023-09-08T08:23:40;98726.53;;;21.27;86.16
141;BME280;65;48.778;9.160;2023-09-08T08:26:26;98720.56;;;21.51;82.67
141;BME280;65;48.778;9.160;2023-09-08T08:29:15;98724.19;;;21.59;83.11
141;BME280;65;48.778;9.160;2023-09-08T08:32:01;98727.72;;;21.77;82.05
141;BME280;65;48.778;9.160;2023-09-08T08:34:46;98725.16;;;21.94;81.54
141;BME280;65;48.778;9.160;2023-09-08T08:37:32;98721.19;;;22.16;80.92
141;BME280;65;48.778;9.160;2023-09-08T08:40:18;98724.09;;;22.48;78.34
141;BME280;65;48.778;9.160;2023-09-08T08:43:04;98714.94;;;22.93;77.02
141;BME280;65;48.778;9.160;2023-09-08T08:45:50;98720.06;;;24.60;69.82
141;BME280;65;48.778;9.160;2023-09-08T08:48:36;98699.84;;;27.58;57.55
141;BME280;65;48.778;9.160;2023-09-08T08:51:23;98707.47;;;29.91;48.37
141;BME280;65;48.778;9.160;2023-09-08T08:54:12;98701.31;;;31.28;45.72
141;BME280;65;48.778;9.160;2023-09-08T08:56:59;98701.56;;;32.71;40.95
141;BME280;65;48.778;9.160;2023-09-08T08:59:45;98697.97;;;33.14;38.35
141;BME280;65;48.778;9.160;2023-09-08T09:02:31;98704.44;;;33.86;39.06
141;BME280;65;48.778;9.160;2023-09-08T09:05:18;98700.91;;;33.67;38.16
141;BME280;65;48.778;9.160;2023-09-08T09:08:05;98695.22;;;31.20;43.21
141;BME280;65;48.778;9.160;2023-09-08T09:10:51;98698.25;;;29.18;49.47
141;BME280;65;48.778;9.160;2023-09-08T09:13:37;98689.84;;;27.59;51.91
141;BME280;65;48.778;9.160;2023-09-08T09:16:23;98696.50;;;26.61;56.35
141;BME280;65;48.778;9.160;2023-09-08T09:19:10;98701.06;;;26.08;61.50
141;BME280;65;48.778;9.160;2023-09-08T09:22:02;98693.81;;;25.55;60.26
141;BME280;65;48.778;9.160;2023-09-08T09:24:48;98692.97;;;25.23;62.99
141;BME280;65;48.778;9.160;2023-09-08T09:27:34;98698.31;;;25.09;65.11
141;BME280;65;48.778;9.160;2023-09-08T09:30:27;98699.91;;;25.26;65.48
141;BME280;65;48.778;9.160;2023-09-08T09:33:13;98698.53;;;25.30;63.53
141;BME280;65;48.778;9.160;2023-09-08T09:35:59;98700.44;;;25.21;63.65
141;BME280;65;48.778;9.160;2023-09-08T09:38:45;98696.22;;;25.19;64.30
141;BME280;65;48.778;9.160;2023-09-08T09:41:33;98701.63;;;25.19;67.21
141;BME280;65;48.778;9.160;2023-09-08T09:44:19;98701.34;;;25.37;64.43
141;BME280;65;48.778;9.160;2023-09-08T09:47:05;98697.09;;;25.42;66.16
141;BME280;65;48.778;9.160;2023-09-08T09:49:53;98701.03;;;25.63;63.41
141;BME280;65;48.778;9.160;2023-09-08T09:52:39;98697.19;;;25.57;63.46
141;BME280;65;48.778;9.160;2023-09-08T09:55:25;98690.88;;;25.65;63.13
141;BME280;65;48.778;9.160;2023-09-08T09:58:11;98699.13;;;25.94;62.86
141;BME280;65;48.778;9.160;2023-09-08T10:00:58;98685.34;;;27.30;57.82
141;BME280;65;48.778;9.160;2023-09-08T10:03:47;98695.16;;;30.02;48.29
141;BME280;65;48.778;9.160;2023-09-08T10:06:38;98686.75;;;32.35;41.44
141;BME280;65;48.778;9.160;2023-09-08T10:09:24;98685.16;;;34.69;36.74
141;BME280;65;48.778;9.160;2023-09-08T10:12:13;98686.31;;;35.48;34.98
141;BME280;65;48.778;9.160;2023-09-08T10:15:02;98684.00;;;37.03;31.77
141;BME280;65;48.778;9.160;2023-09-08T10:17:57;98685.59;;;36.99;32.32
141;BME280;65;48.778;9.160;2023-09-08T10:20:47;98675.44;;;36.83;32.01
141;BME280;65;48.778;9.160;2023-09-08T10:23:37;98668.91;;;36.33;32.74
141;BME280;65;48.778;9.160;2023-09-08T10:26:26;98661.56;;;37.16;30.90
141;BME280;65;48.778;9.160;2023-09-08T10:29:13;98668.69;;;37.12;32.79
141;BME280;65;48.778;9.160;2023-09-08T10:31:59;98659.16;;;35.52;32.49
141;BME280;65;48.778;9.160;2023-09-08T10:34:47;98647.63;;;38.04;29.84
141;BME280;65;48.778;9.160;2023-09-08T10:37:34;98663.31;;;39.09;29.21
141;BME280;65;48.778;9.160;2023-09-08T10:40:20;98661.88;;;39.64;26.17
141;BME280;65;48.778;9.160;2023-09-08T10:43:07;98658.47;;;39.37;27.75
141;BME280;65;48.778;9.160;2023-09-08T10:45:53;98659.28;;;39.32;28.65
141;BME280;65;48.778;9.160;2023-09-08T10:48:43;98651.69;;;40.15;27.32
141;BME280;65;48.778;9.160;2023-09-08T10:51:29;98653.66;;;40.05;26.84
141;BME280;65;48.778;9.160;2023-09-08T10:54:41;98659.91;;;38.92;27.38
141;BME280;65;48.778;9.160;2023-09-08T10:57:27;98650.81;;;39.69;26.33
141;BME280;65;48.778;9.160;2023-09-08T11:00:17;98645.34;;;40.00;26.15
141;BME280;65;48.778;9.160;2023-09-08T11:03:03;98654.47;;;40.51;25.81
141;BME280;65;48.778;9.160;2023-09-08T11:05:49;98648.94;;;40.00;26.78
141;BME280;65;48.778;9.160;2023-09-08T11:08:45;98652.44;;;39.55;26.52
141;BME280;65;48.778;9.160;2023-09-08T11:11:33;98641.13;;;39.82;25.50
141;BME280;65;48.778;9.160;2023-09-08T11:14:19;98639.78;;;40.45;25.88
141;BME280;65;48.778;9.160;2023-09-08T11:17:04;98640.88;;;40.19;25.26
141;BME280;65;48.778;9.160;2023-09-08T11:19:50;98641.44;;;40.16;25.39
141;BME280;65;48.778;9.160;2023-09-08T11:22:38;98644.09;;;41.07;24.81
141;BME280;65;48.778;9.160;2023-09-08T11:25:24;98647.38;;;36.47;29.81
141;BME280;65;48.778;9.160;2023-09-08T11:28:11;98641.25;;;39.30;26.46
141;BME280;65;48.778;9.160;2023-09-08T11:30:57;98635.59;;;40.33;24.25
141;BME280;65;48.778;9.160;2023-09-08T11:33:43;98637.34;;;38.63;27.29
141;BME280;65;48.778;9.160;2023-09-08T11:36:29;98638.81;;;39.43;26.02
141;BME280;65;48.778;9.160;2023-09-08T11:39:16;98642.41;;;38.76;27.45
141;BME280;65;48.778;9.160;2023-09-08T11:42:01;98635.13;;;39.12;26.96
141;BME280;65;48.778;9.160;2023-09-08T11:44:47;98636.34;;;39.42;26.22
141;BME280;65;48.778;9.160;2023-09-08T11:47:35;98635.84;;;39.85;25.78
141;BME280;65;48.778;9.160;2023-09-08T11:50:21;98637.00;;;39.90;25.27
141;BME280;65;48.778;9.160;2023-09-08T11:53:07;98646.44;;;36.08;31.76
141;BME280;65;48.778;9.160;2023-09-08T11:55:52;98635.34;;;38.16;27.56
141;BME280;65;48.778;9.160;2023-09-08T11:58:38;98643.69;;;34.59;32.70
141;BME280;65;48.778;9.160;2023-09-08T12:01:24;98630.66;;;36.92;29.89
141;BME280;65;48.778;9.160;2023-09-08T12:04:17;98640.09;;;39.15;26.61
141;BME280;65;48.778;9.160;2023-09-08T12:07:04;98631.13;;;39.50;26.25
141;BME280;65;48.778;9.160;2023-09-08T12:09:50;98635.88;;;40.31;26.34
141;BME280;65;48.778;9.160;2023-09-08T12:12:47;98630.91;;;40.33;26.09
141;BME280;65;48.778;9.160;2023-09-08T12:18:37;98632.84;;;40.43;25.03
141;BME280;65;48.778;9.160;2023-09-08T12:21:24;98628.44;;;39.96;25.66
141;BME280;65;48.778;9.160;2023-09-08T12:24:10;98619.81;;;39.77;25.60
141;BME280;65;48.778;9.160;2023-09-08T12:27:02;98616.22;;;39.92;25.03
141;BME280;65;48.778;9.160;2023-09-08T12:29:58;98618.69;;;38.85;25.90
141;BME280;65;48.778;9.160;2023-09-08T12:32:47;98615.84;;;39.38;26.80
141;BME280;65;48.778;9.160;2023-09-08T12:35:36;98617.66;;;38.59;26.19
141;BME280;65;48.778;9.160;2023-09-08T12:38:22;98614.00;;;38.12;29.77
141;BME280;65;48.778;9.160;2023-09-08T12:41:08;98610.94;;;38.08;27.54
141;BME280;65;48.778;9.160;2023-09-08T12:43:54;98617.22;;;38.73;26.04
141;BME280;65;48.778;9.160;2023-09-08T12:46:40;98608.59;;;39.21;25.87
141;BME280;65;48.778;9.160;2023-09-08T12:49:26;98602.50;;;39.14;26.21
141;BME280;65;48.778;9.160;2023-09-08T12:52:11;98602.03;;;38.28;27.83
141;BME280;65;48.778;9.160;2023-09-08T12:54:57;98593.53;;;37.71;28.28
141;BME280;65;48.778;9.160;2023-09-08T12:57:43;98594.13;;;38.15;27.68
141;BME280;65;48.778;9.160;2023-09-08T13:00:29;98597.50;;;37.31;30.53
141;BME280;65;48.778;9.160;2023-09-08T13:03:15;98594.81;;;37.63;27.66
141;BME280;65;48.778;9.160;2023-09-08T13:06:00;98591.03;;;36.77;28.23
141;BME280;65;48.778;9.160;2023-09-08T13:08:56;98591.13;;;36.09;32.89
141;BME280;65;48.778;9.160;2023-09-08T13:11:44;98589.28;;;36.32;30.86
141;BME280;65;48.778;9.160;2023-09-08T13:14:31;98593.75;;;35.99;31.17
141;BME280;65;48.778;9.160;2023-09-08T13:17:16;98585.00;;;35.74;32.05
141;BME280;65;48.778;9.160;2023-09-08T13:20:03;98583.94;;;35.01;32.49
141;BME280;65;48.778;9.160;2023-09-08T13:22:49;98579.44;;;34.83;33.02
141;BME280;65;48.778;9.160;2023-09-08T13:25:34;98577.56;;;34.25;34.31
141;BME280;65;48.778;9.160;2023-09-08T13:28:20;98568.72;;;34.70;31.97
141;BME280;65;48.778;9.160;2023-09-08T13:31:06;98567.63;;;34.71;33.14
141;BME280;65;48.778;9.160;2023-09-08T13:33:51;98566.63;;;35.29;31.42
141;BME280;65;48.778;9.160;2023-09-08T13:36:37;98561.63;;;35.14;31.97
141;BME280;65;48.778;9.160;2023-09-08T13:39:23;98565.84;;;35.45;30.13
141;BME280;65;48.778;9.160;2023-09-08T13:42:09;98566.81;;;35.39;31.75
141;BME280;65;48.778;9.160;2023-09-08T13:44:55;98561.94;;;35.30;30.91
141;BME280;65;48.778;9.160;2023-09-08T13:47:40;98553.13;;;35.28;30.33
141;BME280;65;48.778;9.160;2023-09-08T13:50:26;98551.75;;;35.42;32.31
141;BME280;65;48.778;9.160;2023-09-08T13:53:12;98553.47;;;35.93;29.87
141;BME280;65;48.778;9.160;2023-09-08T13:55:58;98554.59;;;35.47;33.00
141;BME280;65;48.778;9.160;2023-09-08T13:58:53;98555.41;;;35.64;31.97
141;BME280;65;48.778;9.160;2023-09-08T14:01:39;98559.59;;;34.93;31.58
141;BME280;65;48.778;9.160;2023-09-08T14:04:25;98557.34;;;34.67;33.46
141;BME280;65;48.778;9.160;2023-09-08T14:07:11;98560.41;;;34.42;32.99
141;BME280;65;48.778;9.160;2023-09-08T14:09:57;98559.31;;;34.31;32.17
141;BME280;65;48.778;9.160;2023-09-08T14:12:42;98555.75;;;32.21;35.35
141;BME280;65;48.778;9.160;2023-09-08T14:15:28;98549.84;;;33.27;34.16
141;BME280;65;48.778;9.160;2023-09-08T14:18:14;98549.38;;;33.60;33.96
141;BME280;65;48.778;9.160;2023-09-08T14:21:00;98548.28;;;33.61;33.04
141;BME280;65;48.778;9.160;2023-09-08T14:23:46;98544.97;;;32.99;35.48
141;BME280;65;48.778;9.160;2023-09-08T14:26:32;98551.91;;;33.01;35.06
141;BME280;65;48.778;9.160;2023-09-08T14:29:18;98551.56;;;33.10;34.06
141;BME280;65;48.778;9.160;2023-09-08T14:32:03;98546.19;;;32.85;36.50
141;BME280;65;48.778;9.160;2023-09-08T14:34:49;98544.78;;;33.12;34.22
141;BME280;65;48.778;9.160;2023-09-08T14:37:35;98548.91;;;33.75;32.71
141;BME280;65;48.778;9.160;2023-09-08T14:40:22;98547.50;;;33.84;33.12
141;BME280;65;48.778;9.160;2023-09-08T14:43:08;98551.75;;;33.80;33.66
141;BME280;65;48.778;9.160;2023-09-08T14:45:54;98552.41;;;33.93;32.77
141;BME280;65;48.778;9.160;2023-09-08T14:48:42;98544.16;;;32.98;34.01
141;BME280;65;48.778;9.160;2023-09-08T14:51:29;98544.00;;;32.75;34.25
141;BME280;65;48.778;9.160;2023-09-08T14:54:14;98542.81;;;31.91;37.59
141;BME280;65;48.778;9.160;2023-09-08T14:57:00;98538.50;;;31.77;36.27
141;BME280;65;48.778;9.160;2023-09-08T14:59:46;98531.94;;;31.85;35.37
141;BME280;65;48.778;9.160;2023-09-08T15:02:31;98535.38;;;31.73;37.88
141;BME280;65;48.778;9.160;2023-09-08T15:05:17;98539.91;;;31.86;35.95
141;BME280;65;48.778;9.160;2023-09-08T15:08:03;98537.19;;;32.04;34.95
141;BME280;65;48.778;9.160;2023-09-08T15:10:49;98540.50;;;31.88;35.62
141;BME280;65;48.778;9.160;2023-09-08T15:13:35;98536.84;;;31.69;37.37
141;BME280;65;48.778;9.160;2023-09-08T15:16:20;98543.03;;;31.58;36.55
141;BME280;65;48.778;9.160;2023-09-08T15:19:06;98536.97;;;30.87;38.17
141;BME280;65;48.778;9.160;2023-09-08T15:21:52;98545.31;;;30.40;38.58
141;BME280;65;48.778;9.160;2023-09-08T15:24:38;98531.81;;;30.72;38.20
141;BME280;65;48.778;9.160;2023-09-08T15:27:23;98537.34;;;30.45;42.58
141;BME280;65;48.778;9.160;2023-09-08T15:30:12;98530.59;;;30.48;43.87
141;BME280;65;48.778;9.160;2023-09-08T15:33:02;98536.31;;;30.40;39.78
141;BME280;65;48.778;9.160;2023-09-08T15:35:53;98535.75;;;29.91;45.13
141;BME280;65;48.778;9.160;2023-09-08T15:38:41;98534.50;;;29.48;45.45
141;BME280;65;48.778;9.160;2023-09-08T15:41:27;98532.78;;;29.20;42.75
141;BME280;65;48.778;9.160;2023-09-08T15:44:13;98531.41;;;28.83;42.61